createdAt,value
2023-03-27T00:00:35.753Z,5.64
2023-03-27T00:03:22.467Z,5.63
2023-03-27T00:06:00.188Z,5.44
2023-03-27T00:08:29.624Z,5.51
2023-03-27T00:10:59.915Z,5.37
2023-03-27T00:13:29.499Z,5.40
2023-03-27T00:15:59.863Z,5.46
2023-03-27T00:18:30.940Z,5.44
2023-03-27T00:21:00.947Z,5.42
2023-03-27T00:23:30.481Z,5.58
2023-03-27T00:26:00.441Z,5.65
2023-03-27T00:28:30.453Z,5.65
2023-03-27T00:31:00.415Z,5.55
2023-03-27T00:33:31.109Z,5.62
2023-03-27T00:36:00.546Z,5.61
2023-03-27T00:38:29.782Z,5.63
2023-03-27T00:41:00.027Z,5.43
2023-03-27T00:43:30.148Z,5.38
2023-03-27T00:46:01.528Z,5.26
2023-03-27T00:48:32.822Z,5.37
2023-03-27T00:51:02.263Z,5.35
2023-03-27T00:53:31.449Z,5.31
2023-03-27T00:56:02.533Z,5.35
2023-03-27T00:58:31.964Z,5.28
2023-03-27T01:01:01.687Z,5.37
2023-03-27T01:03:32.936Z,5.37
2023-03-27T01:06:02.829Z,5.35
2023-03-27T01:08:33.270Z,5.28
2023-03-27T01:11:05.999Z,5.18
2023-03-27T01:13:39.506Z,5.11
2023-03-27T01:16:10.919Z,5.07
2023-03-27T01:18:45.102Z,5.11
2023-03-27T01:21:28.294Z,5.11
2023-03-27T01:24:03.322Z,5.14
2023-03-27T01:26:40.734Z,5.17
2023-03-27T01:29:11.302Z,5.18
2023-03-27T01:31:48.005Z,5.20
2023-03-27T01:34:26.078Z,5.17
2023-03-27T01:37:10.358Z,5.18
2023-03-27T01:39:49.066Z,4.95
2023-03-27T01:42:19.981Z,4.86
2023-03-27T01:44:50.055Z,4.75
2023-03-27T01:47:32.599Z,4.72
2023-03-27T01:50:03.763Z,4.79
2023-03-27T01:52:33.703Z,4.66
2023-03-27T01:55:05.374Z,4.46
2023-03-27T01:57:37.424Z,4.42
2023-03-27T02:00:22.086Z,4.51
2023-03-27T02:02:55.753Z,4.31
2023-03-27T02:05:27.219Z,4.35
2023-03-27T02:07:57.351Z,4.32
2023-03-27T02:10:28.876Z,4.39
2023-03-27T02:12:59.396Z,4.37
2023-03-27T02:15:30.345Z,4.26
2023-03-27T02:18:05.097Z,4.19
2023-03-27T02:20:34.725Z,4.25
2023-03-27T02:23:04.279Z,4.23
2023-03-27T02:25:35.385Z,4.26
2023-03-27T02:28:14.344Z,4.21
2023-03-27T02:30:44.657Z,4.25
2023-03-27T02:33:16.220Z,4.18
2023-03-27T02:35:47.490Z,4.09
2023-03-27T02:38:18.704Z,4.23
2023-03-27T02:40:57.459Z,4.22
2023-03-27T02:43:28.554Z,4.17
2023-03-27T02:45:58.588Z,4.17
2023-03-27T02:48:29.923Z,4.15
2023-03-27T02:51:23.618Z,4.06
2023-03-27T02:53:54.426Z,4.11
2023-03-27T02:56:25.017Z,4.07
2023-03-27T02:58:57.359Z,4.10
2023-03-27T03:01:27.630Z,4.07
2023-03-27T03:03:57.804Z,3.99
2023-03-27T03:06:30.423Z,4.07
2023-03-27T03:09:03.108Z,4.01
2023-03-27T03:11:33.628Z,4.06
2023-03-27T03:14:03.025Z,4.05
2023-03-27T03:16:32.147Z,4.14
2023-03-27T03:19:02.038Z,4.17
2023-03-27T03:21:32.121Z,4.22
2023-03-27T03:24:01.739Z,4.27
2023-03-27T03:26:32.307Z,4.24
2023-03-27T03:29:04.595Z,4.21
2023-03-27T03:31:44.610Z,4.34
2023-03-27T03:34:14.947Z,4.40
2023-03-27T03:36:45.111Z,4.36
2023-03-27T03:39:14.659Z,4.34
2023-03-27T03:41:43.860Z,4.35
2023-03-27T03:44:14.865Z,4.27
2023-03-27T03:46:44.216Z,4.32
2023-03-27T03:49:13.755Z,4.37
2023-03-27T03:51:43.017Z,4.33
2023-03-27T03:54:12.516Z,4.23
2023-03-27T03:56:41.832Z,3.90
2023-03-27T03:59:11.912Z,4.09
2023-03-27T04:01:42.602Z,4.17
2023-03-27T04:04:12.296Z,4.32
2023-03-27T04:06:43.351Z,4.42
2023-03-27T04:09:12.763Z,4.34
2023-03-27T04:11:41.891Z,4.38
2023-03-27T04:14:11.337Z,4.44
2023-03-27T04:16:40.435Z,4.49
2023-03-27T04:19:11.341Z,4.43
2023-03-27T04:21:42.474Z,4.41
2023-03-27T04:26:58.322Z,4.48
2023-03-27T04:29:35.338Z,4.42
2023-03-27T04:32:05.794Z,4.45
2023-03-27T04:34:38.513Z,4.36
2023-03-27T04:41:00.624Z,4.45
2023-03-27T04:43:49.523Z,4.49
2023-03-27T04:50:02.645Z,4.52
2023-03-27T04:53:06.307Z,4.48
2023-03-27T04:55:59.328Z,4.44
2023-03-27T04:58:45.635Z,4.46
2023-03-27T05:01:30.852Z,4.48
2023-03-27T05:04:19.059Z,4.51
2023-03-27T05:07:33.105Z,4.52
2023-03-27T05:10:37.355Z,4.49
2023-03-27T05:13:34.243Z,4.48
2023-03-27T05:16:32.079Z,4.41
2023-03-27T05:19:50.014Z,4.37
2023-03-27T05:26:12.006Z,4.38
2023-03-27T05:29:03.299Z,4.45
2023-03-27T05:31:51.014Z,4.48
2023-03-27T05:40:35.410Z,4.52
2023-03-27T05:43:23.554Z,4.54
2023-03-27T05:46:22.445Z,4.58
2023-03-27T05:49:20.990Z,4.41
2023-03-27T05:52:12.634Z,4.54
2023-03-27T05:54:52.438Z,4.65
2023-03-27T06:00:30.791Z,4.72
2023-03-27T06:03:05.454Z,4.72
2023-03-27T06:05:35.255Z,4.71
2023-03-27T06:08:04.424Z,4.75
2023-03-27T06:10:34.430Z,4.77
2023-03-27T06:13:05.206Z,4.76
2023-03-27T06:15:34.807Z,4.80
2023-03-27T06:18:05.829Z,4.83
2023-03-27T06:20:36.001Z,4.83
2023-03-27T06:23:09.428Z,4.82
2023-03-27T06:25:39.588Z,4.75
2023-03-27T06:28:11.524Z,4.70
2023-03-27T06:30:41.071Z,4.72
2023-03-27T06:33:12.300Z,4.85
2023-03-27T06:35:53.466Z,4.95
2023-03-27T06:38:23.065Z,4.91
2023-03-27T06:40:54.459Z,4.90
2023-03-27T06:43:26.412Z,4.73
2023-03-27T06:45:58.449Z,4.66
2023-03-27T06:48:29.248Z,4.76
2023-03-27T06:50:59.005Z,4.73
2023-03-27T06:53:32.088Z,4.73
2023-03-27T06:56:04.187Z,4.57
2023-03-27T06:58:33.311Z,4.51
2023-03-27T07:01:02.819Z,4.30
2023-03-27T07:03:33.433Z,4.73
2023-03-27T07:06:03.591Z,4.94
2023-03-27T07:08:32.884Z,4.75
2023-03-27T07:13:36.008Z,5.02
2023-03-27T07:16:05.890Z,5.01
2023-03-27T07:18:39.747Z,4.98
2023-03-27T07:21:09.579Z,4.91
2023-03-27T07:23:38.764Z,5.02
2023-03-27T07:26:08.596Z,5.00
2023-03-27T07:28:39.279Z,4.47
2023-03-27T07:31:16.706Z,3.56
2023-03-27T07:33:58.136Z,3.72
2023-03-27T07:36:27.901Z,3.58
2023-03-27T07:38:57.030Z,3.78
2023-03-27T07:41:26.531Z,3.64
2023-03-27T07:43:55.989Z,4.01
2023-03-27T07:46:26.540Z,3.90
2023-03-27T07:48:57.673Z,3.92
2023-03-27T07:51:27.652Z,4.07
2023-03-27T07:53:58.856Z,4.06
2023-03-27T07:56:29.062Z,3.98
2023-03-27T07:58:58.435Z,3.78
2023-03-27T08:01:27.973Z,3.72
2023-03-27T08:03:59.659Z,3.75
2023-03-27T08:06:29.291Z,3.86
2023-03-27T08:08:58.726Z,3.85
2023-03-27T08:11:30.988Z,3.81
2023-03-27T08:14:00.452Z,3.60
2023-03-27T08:16:30.383Z,3.74
2023-03-27T08:19:03.320Z,3.52
2023-03-27T08:21:33.411Z,3.46
2023-03-27T08:24:04.880Z,3.43
2023-03-27T08:26:34.428Z,3.34
2023-03-27T08:29:03.832Z,3.46
2023-03-27T08:31:33.671Z,3.60
2023-03-27T08:34:04.142Z,3.52
2023-03-27T08:36:34.553Z,3.39
2023-03-27T08:39:04.576Z,3.37
2023-03-27T08:41:41.811Z,3.32
2023-03-27T08:44:13.003Z,3.11
2023-03-27T08:46:42.685Z,2.89
2023-03-27T08:49:15.634Z,2.86
2023-03-27T08:51:47.180Z,2.65
2023-03-27T08:54:17.708Z,2.79
2023-03-27T08:56:48.381Z,2.80
2023-03-27T08:59:18.790Z,2.69
2023-03-27T09:01:51.187Z,2.69
2023-03-27T09:04:25.409Z,2.62
2023-03-27T09:06:57.546Z,2.71
2023-03-27T09:09:33.493Z,2.76
2023-03-27T09:12:14.198Z,2.80
2023-03-27T09:14:44.523Z,2.82
2023-03-27T09:17:16.132Z,2.77
2023-03-27T09:19:47.687Z,2.86
2023-03-27T09:22:18.166Z,2.95
2023-03-27T09:24:48.269Z,2.84
2023-03-27T09:27:19.099Z,2.78
2023-03-27T09:30:05.847Z,2.96
2023-03-27T09:32:36.024Z,2.95
2023-03-27T09:35:14.150Z,2.89
2023-03-27T09:37:44.097Z,2.62
2023-03-27T09:40:17.951Z,2.98
2023-03-27T09:42:48.351Z,2.96
2023-03-27T09:45:17.436Z,2.97
2023-03-27T09:47:49.454Z,3.09
2023-03-27T09:50:24.106Z,3.20
2023-03-27T09:52:55.370Z,3.13
2023-03-27T09:55:25.297Z,3.03
2023-03-27T09:57:58.985Z,3.05
2023-03-27T10:00:29.551Z,2.96
2023-03-27T10:03:03.947Z,3.17
2023-03-27T10:05:34.835Z,3.13
2023-03-27T10:08:04.535Z,3.26
2023-03-27T10:10:34.929Z,3.42
2023-03-27T10:13:04.505Z,3.47
2023-03-27T10:15:34.317Z,3.57
2023-03-27T10:18:05.140Z,3.62
2023-03-27T10:20:35.964Z,3.58
2023-03-27T10:23:08.620Z,3.62
2023-03-27T10:25:39.225Z,3.78
2023-03-27T10:28:11.007Z,3.70
2023-03-27T10:30:41.008Z,3.67
2023-03-27T10:33:12.472Z,3.73
2023-03-27T10:35:43.681Z,3.74
2023-03-27T10:38:14.278Z,3.69
2023-03-27T10:40:44.029Z,3.72
2023-03-27T10:43:14.496Z,3.72
2023-03-27T10:45:45.712Z,3.72
2023-03-27T10:48:17.419Z,4.01
2023-03-27T10:50:53.328Z,3.99
2023-03-27T10:53:24.502Z,4.14
2023-03-27T10:55:55.951Z,4.11
2023-03-27T10:58:27.241Z,3.88
2023-03-27T11:00:57.862Z,4.05
2023-03-27T11:03:29.120Z,3.84
2023-03-27T11:05:59.712Z,3.77
2023-03-27T11:08:30.198Z,3.81
2023-03-27T11:11:10.117Z,3.85
2023-03-27T11:13:40.068Z,3.88
2023-03-27T11:16:12.797Z,4.00
2023-03-27T11:18:42.635Z,3.87
2023-03-27T11:21:16.079Z,3.76
2023-03-27T11:23:47.198Z,3.71
2023-03-27T11:26:17.086Z,3.97
2023-03-27T11:28:47.449Z,4.15
2023-03-27T11:31:18.006Z,4.08
2023-03-27T11:33:49.349Z,4.11
2023-03-27T11:36:26.938Z,3.77
2023-03-27T11:38:58.760Z,3.77
2023-03-27T11:44:17.390Z,3.85
2023-03-27T11:47:01.336Z,4.02
2023-03-27T11:49:37.540Z,3.92
2023-03-27T11:52:10.319Z,3.72
2023-03-27T11:54:43.528Z,3.63
2023-03-27T11:57:13.588Z,3.72
2023-03-27T12:00:00.737Z,3.80
2023-03-27T12:02:36.723Z,3.84
2023-03-27T12:05:07.654Z,3.79
2023-03-27T12:07:47.441Z,3.81
2023-03-27T12:10:28.405Z,3.86
2023-03-27T12:13:19.099Z,3.64
2023-03-27T12:16:03.650Z,3.53
2023-03-27T12:18:36.304Z,3.62
2023-03-27T12:21:13.767Z,3.72
2023-03-27T12:23:52.376Z,3.50
2023-03-27T12:26:29.206Z,3.48
2023-03-27T12:29:03.995Z,3.28
2023-03-27T12:31:58.100Z,3.40
2023-03-27T12:34:31.591Z,3.23
2023-03-27T12:37:01.298Z,3.18
2023-03-27T12:39:32.055Z,3.38
2023-03-27T12:42:01.724Z,3.41
2023-03-27T12:44:31.769Z,3.40
2023-03-27T12:47:09.772Z,3.39
2023-03-27T12:49:47.437Z,3.25
2023-03-27T12:52:20.064Z,3.25
2023-03-27T12:55:07.180Z,3.37
2023-03-27T12:57:43.129Z,3.40
2023-03-27T13:00:21.539Z,3.34
2023-03-27T13:03:06.015Z,3.37
2023-03-27T13:05:41.356Z,3.27
2023-03-27T13:08:22.114Z,3.14
2023-03-27T13:10:55.282Z,3.28
2023-03-27T13:13:54.835Z,3.29
2023-03-27T13:16:31.631Z,3.24
2023-03-27T13:19:05.823Z,3.34
2023-03-27T13:21:37.383Z,3.43
2023-03-27T13:24:17.578Z,3.23
2023-03-27T13:26:56.426Z,3.34
2023-03-27T13:29:27.214Z,3.45
2023-03-27T13:31:57.217Z,3.51
2023-03-27T13:34:31.885Z,3.40
2023-03-27T13:37:21.788Z,3.43
2023-03-27T13:40:08.499Z,3.52
2023-03-27T13:42:40.788Z,3.31
2023-03-27T13:45:12.536Z,3.30
2023-03-27T13:47:47.353Z,3.40
2023-03-27T13:51:04.394Z,3.39
2023-03-27T13:53:38.454Z,3.11
2023-03-27T13:56:11.465Z,3.28
2023-03-27T13:58:59.104Z,3.27
2023-03-27T14:01:34.434Z,3.26
2023-03-27T14:04:12.255Z,3.28
2023-03-27T14:06:48.857Z,3.22
2023-03-27T14:09:18.446Z,3.24
2023-03-27T14:12:29.879Z,3.28
2023-03-27T14:15:16.888Z,3.30
2023-03-27T14:17:55.797Z,3.44
2023-03-27T14:20:26.050Z,3.42
2023-03-27T14:22:58.705Z,3.60
2023-03-27T14:25:31.867Z,3.74
2023-03-27T14:28:01.577Z,3.95
2023-03-27T14:30:31.596Z,3.91
2023-03-27T14:33:04.623Z,3.89
2023-03-27T14:35:36.139Z,3.62
2023-03-27T14:38:07.830Z,3.78
2023-03-27T14:40:39.506Z,3.85
2023-03-27T14:43:09.275Z,3.75
2023-03-27T14:45:39.512Z,4.04
2023-03-27T14:48:11.953Z,4.24
2023-03-27T14:50:41.305Z,3.98
2023-03-27T14:53:11.309Z,4.06
2023-03-27T14:55:42.665Z,4.18
2023-03-27T14:58:16.120Z,4.19
2023-03-27T15:00:46.355Z,4.10
2023-03-27T15:03:19.108Z,4.09
2023-03-27T15:05:57.488Z,4.15
2023-03-27T15:08:29.153Z,4.19
2023-03-27T15:10:58.486Z,4.25
2023-03-27T15:13:35.659Z,4.41
2023-03-27T15:16:08.028Z,4.59
2023-03-27T15:18:40.059Z,4.37
2023-03-27T15:21:10.369Z,4.46
2023-03-27T15:23:41.327Z,4.00
2023-03-27T15:26:11.220Z,3.79
2023-03-27T15:28:42.993Z,3.99
2023-03-27T15:31:12.223Z,3.64
2023-03-27T15:33:46.711Z,3.94
2023-03-27T15:36:26.826Z,3.80
2023-03-27T15:38:56.546Z,3.88
2023-03-27T15:41:40.583Z,3.87
2023-03-27T15:44:11.313Z,3.82
2023-03-27T15:46:47.518Z,3.61
2023-03-27T15:49:22.708Z,3.78
2023-03-27T15:51:52.098Z,3.76
2023-03-27T15:54:32.177Z,3.75
2023-03-27T15:57:10.461Z,3.26
2023-03-27T15:59:52.953Z,3.34
2023-03-27T16:02:23.409Z,3.35
2023-03-27T16:05:14.453Z,3.29
2023-03-27T16:07:47.393Z,3.43
2023-03-27T16:10:28.990Z,3.29
2023-03-27T16:13:00.796Z,3.43
2023-03-27T16:15:30.773Z,3.51
2023-03-27T16:18:00.373Z,3.46
2023-03-27T16:20:37.971Z,3.48
2023-03-27T16:23:07.103Z,3.54
2023-03-27T16:25:36.570Z,3.53
2023-03-27T16:28:06.073Z,3.46
2023-03-27T16:30:36.572Z,3.38
2023-03-27T16:33:10.270Z,3.44
2023-03-27T16:35:41.342Z,3.34
2023-03-27T16:38:10.638Z,3.32
2023-03-27T16:40:40.058Z,3.10
2023-03-27T16:43:09.177Z,3.13
2023-03-27T16:45:38.734Z,3.20
2023-03-27T16:48:08.649Z,3.17
2023-03-27T16:50:38.235Z,3.28
2023-03-27T16:53:08.805Z,3.15
2023-03-27T16:55:38.303Z,3.16
2023-03-27T16:58:07.488Z,3.34
2023-03-27T17:00:36.965Z,3.27
2023-03-27T17:03:06.112Z,3.17
2023-03-27T17:05:35.592Z,2.98
2023-03-27T17:08:07.138Z,2.83
2023-03-27T17:10:38.423Z,2.91
2023-03-27T17:13:07.586Z,3.01
2023-03-27T17:15:37.683Z,3.12
2023-03-27T17:18:07.184Z,3.12
2023-03-27T17:20:36.700Z,3.14
2023-03-27T17:23:05.877Z,3.06
2023-03-27T17:25:35.254Z,3.07
2023-03-27T17:28:07.110Z,3.10
2023-03-27T17:30:41.090Z,3.05
2023-03-27T17:33:12.233Z,3.12
2023-03-27T17:35:41.723Z,3.11
2023-03-27T17:38:11.054Z,3.11
2023-03-27T17:40:41.280Z,3.11
2023-03-27T17:43:12.538Z,3.12
2023-03-27T17:45:42.924Z,3.08
2023-03-27T17:48:12.080Z,3.09
2023-03-27T17:50:42.575Z,3.06
2023-03-27T17:53:12.442Z,3.09
2023-03-27T17:55:42.103Z,3.04
2023-03-27T17:58:13.278Z,3.05
2023-03-27T18:00:42.835Z,3.03
2023-03-27T18:03:13.593Z,3.04
2023-03-27T18:05:43.695Z,3.03
2023-03-27T18:08:13.693Z,3.01
2023-03-27T18:10:45.138Z,2.99
2023-03-27T18:13:16.386Z,2.97
2023-03-27T18:15:45.996Z,2.95
2023-03-27T18:18:15.120Z,2.97
2023-03-27T18:20:44.590Z,2.97
2023-03-27T18:23:13.765Z,2.95
2023-03-27T18:25:43.332Z,2.94
2023-03-27T18:28:12.454Z,2.84
2023-03-27T18:30:44.364Z,2.86
2023-03-27T18:33:13.599Z,2.87
2023-03-27T18:35:43.246Z,2.86
2023-03-27T18:38:12.399Z,2.86
2023-03-27T18:40:41.941Z,2.83
2023-03-27T18:43:13.236Z,2.79
2023-03-27T18:45:44.803Z,2.78
2023-03-27T18:48:18.685Z,2.73
2023-03-27T18:50:53.757Z,2.74
2023-03-27T18:53:23.565Z,2.72
2023-03-27T18:55:58.812Z,2.70
2023-03-27T18:58:28.627Z,2.67
2023-03-27T19:01:00.076Z,2.65
2023-03-27T19:03:30.552Z,2.65
2023-03-27T19:06:03.383Z,2.60
2023-03-27T19:08:32.973Z,2.58
2023-03-27T19:11:05.025Z,2.57
2023-03-27T19:13:34.160Z,2.55
2023-03-27T19:16:14.335Z,2.51
2023-03-27T19:18:44.910Z,2.51
2023-03-27T19:21:24.954Z,2.44
2023-03-27T19:23:54.135Z,2.40
2023-03-27T19:26:23.599Z,2.37
2023-03-27T19:28:52.980Z,2.36
2023-03-27T19:31:24.273Z,2.30
2023-03-27T19:33:53.568Z,2.27
2023-03-27T19:36:25.121Z,2.25
2023-03-27T19:38:57.159Z,2.25
2023-03-27T19:41:32.134Z,2.26
2023-03-27T19:44:04.226Z,2.19
2023-03-27T19:46:35.658Z,2.12
2023-03-27T19:49:05.126Z,2.13
2023-03-27T19:51:34.813Z,2.14
2023-03-27T19:54:04.053Z,2.11
2023-03-27T19:56:33.914Z,2.08
2023-03-27T19:59:28.253Z,2.05
2023-03-27T20:02:18.491Z,2.05
2023-03-27T20:04:49.916Z,2.00
2023-03-27T20:07:19.512Z,1.99
2023-03-27T20:09:48.621Z,1.95
2023-03-27T20:12:20.008Z,1.94
2023-03-27T20:14:58.719Z,1.92
2023-03-27T20:17:40.163Z,1.93
2023-03-27T20:20:11.134Z,1.95
2023-03-27T20:22:54.371Z,1.97
2023-03-27T20:25:28.497Z,1.95
2023-03-27T20:27:57.997Z,1.95
2023-03-27T20:30:27.474Z,1.93
2023-03-27T20:32:58.561Z,1.91
2023-03-27T20:35:27.727Z,1.89
2023-03-27T20:37:58.003Z,1.84
2023-03-27T20:40:27.329Z,1.88
2023-03-27T20:43:03.580Z,1.90
2023-03-27T20:45:32.910Z,1.89
2023-03-27T20:48:04.549Z,1.87
2023-03-27T20:50:35.518Z,1.85
2023-03-27T20:53:05.322Z,1.82
2023-03-27T20:55:37.520Z,1.80
2023-03-27T20:58:10.984Z,1.77
2023-03-27T21:00:40.261Z,1.76
2023-03-27T21:03:11.559Z,1.67
2023-03-27T21:05:41.435Z,1.65
2023-03-27T21:08:10.948Z,1.65
2023-03-27T21:10:40.064Z,1.63
2023-03-27T21:13:09.555Z,1.58
2023-03-27T21:15:38.664Z,1.57
2023-03-27T21:18:08.257Z,1.55
2023-03-27T21:20:38.893Z,1.57
2023-03-27T21:23:08.301Z,1.55
2023-03-27T21:25:37.468Z,1.52
2023-03-27T21:28:07.248Z,1.52
2023-03-27T21:30:47.236Z,1.47
2023-03-27T21:33:18.091Z,1.44
2023-03-27T21:35:49.067Z,1.43
2023-03-27T21:38:18.825Z,1.44
2023-03-27T21:40:47.990Z,1.40
2023-03-27T21:43:17.492Z,1.39
2023-03-27T21:45:46.935Z,1.38
2023-03-27T21:48:16.509Z,1.38
2023-03-27T21:50:46.631Z,1.38
2023-03-27T21:53:18.124Z,1.35
2023-03-27T21:55:47.532Z,1.36
2023-03-27T21:58:17.003Z,1.39
2023-03-27T22:00:46.226Z,1.35
2023-03-27T22:03:15.815Z,1.34
2023-03-27T22:05:49.178Z,1.34
2023-03-27T22:08:26.327Z,1.29
2023-03-27T22:10:58.370Z,1.32
2023-03-27T22:13:27.785Z,1.30
2023-03-27T22:15:57.995Z,1.26
2023-03-27T22:18:27.642Z,1.24
2023-03-27T22:20:56.718Z,1.20
2023-03-27T22:23:27.791Z,1.19
2023-03-27T22:25:57.047Z,1.18
2023-03-27T22:28:26.655Z,1.13
2023-03-27T22:30:56.468Z,1.12
2023-03-27T22:33:25.830Z,1.06
2023-03-27T22:35:55.014Z,1.14
2023-03-27T22:38:24.503Z,1.15
2023-03-27T22:40:55.098Z,1.15
2023-03-27T22:43:24.546Z,1.14
2023-03-27T22:45:53.734Z,1.15
2023-03-27T22:48:23.199Z,1.19
2023-03-27T22:50:56.154Z,1.09
2023-03-27T22:53:25.869Z,1.06
2023-03-27T22:55:57.769Z,1.05
2023-03-27T22:58:27.448Z,1.00
2023-03-27T23:00:56.653Z,1.06
2023-03-27T23:03:26.483Z,1.00
2023-03-27T23:05:55.743Z,0.98
2023-03-27T23:08:27.277Z,0.97
2023-03-27T23:10:58.191Z,0.99
2023-03-27T23:13:28.320Z,1.01
2023-03-27T23:15:57.770Z,1.08
2023-03-27T23:18:27.452Z,1.12
2023-03-27T23:20:56.694Z,1.14
2023-03-27T23:23:26.525Z,1.09
2023-03-27T23:25:55.833Z,1.11
2023-03-27T23:28:26.899Z,1.05
2023-03-27T23:30:56.434Z,1.01
2023-03-27T23:33:26.056Z,1.04
2023-03-27T23:35:55.542Z,1.04
2023-03-27T23:38:25.006Z,0.98
2023-03-27T23:40:57.912Z,0.93
2023-03-27T23:43:29.025Z,1.00
2023-03-27T23:45:59.550Z,1.04
2023-03-27T23:48:29.432Z,1.09
2023-03-27T23:50:58.753Z,1.12
2023-03-27T23:53:28.587Z,1.14
2023-03-27T23:55:58.564Z,1.17
2023-03-27T23:58:32.574Z,1.07
